sensor_id;sensor_type;location;lat;lon;timestamp;temperature;humidity
16627;DHT22;8427;52.204;7.202;2023-06-19T00:01:52;23.10;49.80
16627;DHT22;8427;52.204;7.202;2023-06-19T00:04:20;23.20;50.00
16627;DHT22;8427;52.204;7.202;2023-06-19T00:06:50;23.10;49.30
16627;DHT22;8427;52.204;7.202;2023-06-19T00:09:18;23.10;49.50
16627;DHT22;8427;52.204;7.202;2023-06-19T00:11:46;23.10;49.40
16627;DHT22;8427;52.204;7.202;2023-06-19T00:14:14;23.10;49.60
16627;DHT22;8427;52.204;7.202;2023-06-19T00:16:42;23.10;50.10
16627;DHT22;8427;52.204;7.202;2023-06-19T00:19:10;23.00;49.90
16627;DHT22;8427;52.204;7.202;2023-06-19T00:21:38;23.00;50.00
16627;DHT22;8427;52.204;7.202;2023-06-19T00:24:08;23.10;50.30
16627;DHT22;8427;52.204;7.202;2023-06-19T00:26:36;23.10;50.20
16627;DHT22;8427;52.204;7.202;2023-06-19T00:29:04;23.20;50.80
16627;DHT22;8427;52.204;7.202;2023-06-19T00:31:33;23.10;51.00
16627;DHT22;8427;52.204;7.202;2023-06-19T00:34:04;23.00;50.90
16627;DHT22;8427;52.204;7.202;2023-06-19T00:36:32;23.10;50.90
16627;DHT22;8427;52.204;7.202;2023-06-19T00:39:08;23.00;51.50
16627;DHT22;8427;52.204;7.202;2023-06-19T00:41:37;22.90;51.90
16627;DHT22;8427;52.204;7.202;2023-06-19T00:44:06;22.80;51.90
16627;DHT22;8427;52.204;7.202;2023-06-19T00:46:35;22.90;52.60
16627;DHT22;8427;52.204;7.202;2023-06-19T00:49:05;22.80;53.00
16627;DHT22;8427;52.204;7.202;2023-06-19T00:51:33;22.80;53.00
16627;DHT22;8427;52.204;7.202;2023-06-19T00:54:01;22.70;53.40
16627;DHT22;8427;52.204;7.202;2023-06-19T00:56:31;22.70;54.00
16627;DHT22;8427;52.204;7.202;2023-06-19T00:59:01;22.60;54.30
16627;DHT22;8427;52.204;7.202;2023-06-19T01:01:32;22.50;54.50
16627;DHT22;8427;52.204;7.202;2023-06-19T01:04:01;22.40;55.30
16627;DHT22;8427;52.204;7.202;2023-06-19T01:06:34;22.30;55.50
16627;DHT22;8427;52.204;7.202;2023-06-19T01:09:08;22.10;56.10
16627;DHT22;8427;52.204;7.202;2023-06-19T01:11:42;22.20;56.30
16627;DHT22;8427;52.204;7.202;2023-06-19T01:14:15;22.10;56.80
16627;DHT22;8427;52.204;7.202;2023-06-19T01:16:45;22.00;57.00
16627;DHT22;8427;52.204;7.202;2023-06-19T01:19:18;21.90;56.30
16627;DHT22;8427;52.204;7.202;2023-06-19T01:21:47;21.90;57.30
16627;DHT22;8427;52.204;7.202;2023-06-19T01:24:18;21.90;57.00
16627;DHT22;8427;52.204;7.202;2023-06-19T01:26:46;21.90;57.50
16627;DHT22;8427;52.204;7.202;2023-06-19T01:29:15;21.80;58.00
16627;DHT22;8427;52.204;7.202;2023-06-19T01:31:50;21.80;58.20
16627;DHT22;8427;52.204;7.202;2023-06-19T01:34:21;21.70;58.10
16627;DHT22;8427;52.204;7.202;2023-06-19T01:36:49;21.70;58.40
16627;DHT22;8427;52.204;7.202;2023-06-19T01:39:19;21.60;58.80
16627;DHT22;8427;52.204;7.202;2023-06-19T01:41:48;21.60;59.20
16627;DHT22;8427;52.204;7.202;2023-06-19T01:44:16;21.50;59.60
16627;DHT22;8427;52.204;7.202;2023-06-19T01:46:47;21.50;59.70
16627;DHT22;8427;52.204;7.202;2023-06-19T01:49:16;21.40;59.70
16627;DHT22;8427;52.204;7.202;2023-06-19T01:51:43;21.40;59.70
16627;DHT22;8427;52.204;7.202;2023-06-19T01:54:11;21.30;60.10
16627;DHT22;8427;52.204;7.202;2023-06-19T01:56:41;21.20;60.60
16627;DHT22;8427;52.204;7.202;2023-06-19T01:59:09;21.40;60.80
16627;DHT22;8427;52.204;7.202;2023-06-19T02:01:37;21.20;61.40
16627;DHT22;8427;52.204;7.202;2023-06-19T02:04:05;21.20;61.80
16627;DHT22;8427;52.204;7.202;2023-06-19T02:06:33;21.20;62.00
16627;DHT22;8427;52.204;7.202;2023-06-19T02:09:01;21.30;62.10
16627;DHT22;8427;52.204;7.202;2023-06-19T02:11:29;21.20;62.30
16627;DHT22;8427;52.204;7.202;2023-06-19T02:13:59;21.10;62.10
16627;DHT22;8427;52.204;7.202;2023-06-19T02:16:27;21.00;61.70
16627;DHT22;8427;52.204;7.202;2023-06-19T02:18:55;21.00;61.70
16627;DHT22;8427;52.204;7.202;2023-06-19T02:21:23;20.90;61.80
16627;DHT22;8427;52.204;7.202;2023-06-19T02:23:51;20.90;62.40
16627;DHT22;8427;52.204;7.202;2023-06-19T02:26:19;20.90;62.10
16627;DHT22;8427;52.204;7.202;2023-06-19T02:28:47;20.70;62.40
16627;DHT22;8427;52.204;7.202;2023-06-19T02:31:16;20.70;63.00
16627;DHT22;8427;52.204;7.202;2023-06-19T02:33:44;20.50;63.60
16627;DHT22;8427;52.204;7.202;2023-06-19T02:36:12;20.40;63.60
16627;DHT22;8427;52.204;7.202;2023-06-19T02:38:45;20.40;64.10
16627;DHT22;8427;52.204;7.202;2023-06-19T02:41:14;20.20;64.80
16627;DHT22;8427;52.204;7.202;2023-06-19T02:43:42;20.10;65.10
16627;DHT22;8427;52.204;7.202;2023-06-19T02:46:10;20.00;64.90
16627;DHT22;8427;52.204;7.202;2023-06-19T02:48:40;19.90;65.20
16627;DHT22;8427;52.204;7.202;2023-06-19T02:51:08;19.90;65.30
16627;DHT22;8427;52.204;7.202;2023-06-19T02:53:39;19.80;65.50
16627;DHT22;8427;52.204;7.202;2023-06-19T02:56:08;19.80;65.90
16627;DHT22;8427;52.204;7.202;2023-06-19T02:58:36;19.70;66.10
16627;DHT22;8427;52.204;7.202;2023-06-19T03:01:05;19.60;66.40
16627;DHT22;8427;52.204;7.202;2023-06-19T03:03:35;19.60;66.90
16627;DHT22;8427;52.204;7.202;2023-06-19T03:06:07;19.40;67.40
16627;DHT22;8427;52.204;7.202;2023-06-19T03:08:35;19.50;67.20
16627;DHT22;8427;52.204;7.202;2023-06-19T03:11:03;19.40;67.60
16627;DHT22;8427;52.204;7.202;2023-06-19T03:13:43;19.40;67.80
16627;DHT22;8427;52.204;7.202;2023-06-19T03:16:11;19.30;68.00
16627;DHT22;8427;52.204;7.202;2023-06-19T03:18:39;19.30;68.20
16627;DHT22;8427;52.204;7.202;2023-06-19T03:21:08;19.30;68.30
16627;DHT22;8427;52.204;7.202;2023-06-19T03:23:36;19.20;68.60
16627;DHT22;8427;52.204;7.202;2023-06-19T03:26:05;19.20;68.90
16627;DHT22;8427;52.204;7.202;2023-06-19T03:28:33;19.20;69.00
16627;DHT22;8427;52.204;7.202;2023-06-19T03:31:01;19.10;69.20
16627;DHT22;8427;52.204;7.202;2023-06-19T03:33:29;19.00;69.60
16627;DHT22;8427;52.204;7.202;2023-06-19T03:35:57;19.00;69.40
16627;DHT22;8427;52.204;7.202;2023-06-19T03:38:27;19.00;69.50
16627;DHT22;8427;52.204;7.202;2023-06-19T03:40:54;19.10;69.50
16627;DHT22;8427;52.204;7.202;2023-06-19T03:43:22;19.10;69.50
16627;DHT22;8427;52.204;7.202;2023-06-19T03:45:50;19.20;69.20
16627;DHT22;8427;52.204;7.202;2023-06-19T03:48:18;19.40;68.60
16627;DHT22;8427;52.204;7.202;2023-06-19T03:50:46;19.50;68.30
16627;DHT22;8427;52.204;7.202;2023-06-19T03:53:14;19.70;67.30
16627;DHT22;8427;52.204;7.202;2023-06-19T03:55:44;19.80;67.10
16627;DHT22;8427;52.204;7.202;2023-06-19T03:58:12;19.90;66.60
16627;DHT22;8427;52.204;7.202;2023-06-19T04:00:40;20.10;66.20
16627;DHT22;8427;52.204;7.202;2023-06-19T04:03:08;20.20;66.30
16627;DHT22;8427;52.204;7.202;2023-06-19T04:05:36;20.20;66.10
16627;DHT22;8427;52.204;7.202;2023-06-19T04:08:05;20.40;65.80
16627;DHT22;8427;52.204;7.202;2023-06-19T04:10:33;20.60;65.60
16627;DHT22;8427;52.204;7.202;2023-06-19T04:13:03;20.70;65.50
16627;DHT22;8427;52.204;7.202;2023-06-19T04:15:33;20.80;65.40
16627;DHT22;8427;52.204;7.202;2023-06-19T04:18:02;20.90;65.10
16627;DHT22;8427;52.204;7.202;2023-06-19T04:20:31;21.00;65.00
16627;DHT22;8427;52.204;7.202;2023-06-19T04:23:00;21.10;64.50
16627;DHT22;8427;52.204;7.202;2023-06-19T04:25:28;21.20;64.90
16627;DHT22;8427;52.204;7.202;2023-06-19T04:27:56;21.20;64.40
16627;DHT22;8427;52.204;7.202;2023-06-19T04:30:25;21.30;63.70
16627;DHT22;8427;52.204;7.202;2023-06-19T04:32:53;21.40;63.70
16627;DHT22;8427;52.204;7.202;2023-06-19T04:35:21;21.50;63.40
16627;DHT22;8427;52.204;7.202;2023-06-19T04:37:50;21.40;63.40
16627;DHT22;8427;52.204;7.202;2023-06-19T04:40:18;21.60;63.40
16627;DHT22;8427;52.204;7.202;2023-06-19T04:42:46;21.50;63.20
16627;DHT22;8427;52.204;7.202;2023-06-19T04:45:14;21.60;63.00
16627;DHT22;8427;52.204;7.202;2023-06-19T04:47:43;21.60;63.10
16627;DHT22;8427;52.204;7.202;2023-06-19T04:50:19;21.60;63.20
16627;DHT22;8427;52.204;7.202;2023-06-19T04:52:49;21.60;63.20
16627;DHT22;8427;52.204;7.202;2023-06-19T04:55:18;21.70;63.10
16627;DHT22;8427;52.204;7.202;2023-06-19T04:57:46;21.70;63.00
16627;DHT22;8427;52.204;7.202;2023-06-19T05:00:15;21.80;62.80
16627;DHT22;8427;52.204;7.202;2023-06-19T05:02:47;21.90;62.70
16627;DHT22;8427;52.204;7.202;2023-06-19T05:05:15;22.00;62.90
16627;DHT22;8427;52.204;7.202;2023-06-19T05:07:44;21.90;62.90
16627;DHT22;8427;52.204;7.202;2023-06-19T05:10:13;21.90;62.90
16627;DHT22;8427;52.204;7.202;2023-06-19T05:12:41;21.90;63.20
16627;DHT22;8427;52.204;7.202;2023-06-19T05:15:10;22.10;62.80
16627;DHT22;8427;52.204;7.202;2023-06-19T05:17:38;22.10;63.00
16627;DHT22;8427;52.204;7.202;2023-06-19T05:20:09;22.20;62.90
16627;DHT22;8427;52.204;7.202;2023-06-19T05:22:38;22.20;63.10
16627;DHT22;8427;52.204;7.202;2023-06-19T05:25:07;22.20;63.30
16627;DHT22;8427;52.204;7.202;2023-06-19T05:27:35;22.30;63.10
16627;DHT22;8427;52.204;7.202;2023-06-19T05:30:04;22.20;63.10
16627;DHT22;8427;52.204;7.202;2023-06-19T05:32:32;22.30;63.60
16627;DHT22;8427;52.204;7.202;2023-06-19T05:35:00;22.40;63.10
16627;DHT22;8427;52.204;7.202;2023-06-19T05:37:30;22.30;62.80
16627;DHT22;8427;52.204;7.202;2023-06-19T05:39:58;22.30;63.30
16627;DHT22;8427;52.204;7.202;2023-06-19T05:42:27;22.30;63.30
16627;DHT22;8427;52.204;7.202;2023-06-19T05:45:06;22.40;63.30
16627;DHT22;8427;52.204;7.202;2023-06-19T05:47:34;22.40;63.10
16627;DHT22;8427;52.204;7.202;2023-06-19T05:50:03;22.40;63.40
16627;DHT22;8427;52.204;7.202;2023-06-19T05:52:32;22.50;63.50
16627;DHT22;8427;52.204;7.202;2023-06-19T05:55:00;22.30;63.90
16627;DHT22;8427;52.204;7.202;2023-06-19T05:57:28;22.20;64.90
16627;DHT22;8427;52.204;7.202;2023-06-19T05:59:56;22.10;64.70
16627;DHT22;8427;52.204;7.202;2023-06-19T06:02:24;22.30;64.90
16627;DHT22;8427;52.204;7.202;2023-06-19T06:04:55;22.30;64.50
16627;DHT22;8427;52.204;7.202;2023-06-19T06:07:24;22.30;64.70
16627;DHT22;8427;52.204;7.202;2023-06-19T06:09:55;22.30;64.30
16627;DHT22;8427;52.204;7.202;2023-06-19T06:12:23;22.30;64.30
16627;DHT22;8427;52.204;7.202;2023-06-19T06:14:51;22.30;64.70
16627;DHT22;8427;52.204;7.202;2023-06-19T06:17:19;22.40;64.80
16627;DHT22;8427;52.204;7.202;2023-06-19T06:19:47;22.40;64.50
16627;DHT22;8427;52.204;7.202;2023-06-19T06:22:15;22.60;64.60
16627;DHT22;8427;52.204;7.202;2023-06-19T06:24:45;22.70;63.60
16627;DHT22;8427;52.204;7.202;2023-06-19T06:27:15;22.80;63.80
16627;DHT22;8427;52.204;7.202;2023-06-19T06:29:43;22.80;63.60
16627;DHT22;8427;52.204;7.202;2023-06-19T06:32:11;22.80;64.10
16627;DHT22;8427;52.204;7.202;2023-06-19T06:34:39;22.80;63.30
16627;DHT22;8427;52.204;7.202;2023-06-19T06:37:08;22.80;63.70
16627;DHT22;8427;52.204;7.202;2023-06-19T06:39:36;22.80;63.50
16627;DHT22;8427;52.204;7.202;2023-06-19T06:42:05;22.90;63.40
16627;DHT22;8427;52.204;7.202;2023-06-19T06:44:35;22.90;64.00
16627;DHT22;8427;52.204;7.202;2023-06-19T06:47:03;23.10;63.20
16627;DHT22;8427;52.204;7.202;2023-06-19T06:49:31;23.20;62.60
16627;DHT22;8427;52.204;7.202;2023-06-19T06:51:59;23.30;62.00
16627;DHT22;8427;52.204;7.202;2023-06-19T06:54:27;23.20;62.30
16627;DHT22;8427;52.204;7.202;2023-06-19T06:56:55;23.30;61.90
16627;DHT22;8427;52.204;7.202;2023-06-19T06:59:25;23.40;61.80
16627;DHT22;8427;52.204;7.202;2023-06-19T07:01:55;23.50;61.70
16627;DHT22;8427;52.204;7.202;2023-06-19T07:04:23;23.50;61.40
16627;DHT22;8427;52.204;7.202;2023-06-19T07:06:51;23.50;62.10
16627;DHT22;8427;52.204;7.202;2023-06-19T07:09:20;23.20;62.70
16627;DHT22;8427;52.204;7.202;2023-06-19T07:11:48;23.20;63.20
16627;DHT22;8427;52.204;7.202;2023-06-19T07:14:20;23.10;63.70
16627;DHT22;8427;52.204;7.202;2023-06-19T07:16:48;23.10;63.50
16627;DHT22;8427;52.204;7.202;2023-06-19T07:19:18;22.90;63.80
16627;DHT22;8427;52.204;7.202;2023-06-19T07:21:46;22.70;64.20
16627;DHT22;8427;52.204;7.202;2023-06-19T07:24:14;22.60;65.10
16627;DHT22;8427;52.204;7.202;2023-06-19T07:26:42;22.60;65.20
16627;DHT22;8427;52.204;7.202;2023-06-19T07:29:10;22.70;65.60
16627;DHT22;8427;52.204;7.202;2023-06-19T07:31:38;22.70;65.30
16627;DHT22;8427;52.204;7.202;2023-06-19T07:34:09;22.70;65.20
16627;DHT22;8427;52.204;7.202;2023-06-19T07:36:38;22.80;64.90
16627;DHT22;8427;52.204;7.202;2023-06-19T07:39:06;22.80;64.30
16627;DHT22;8427;52.204;7.202;2023-06-19T07:41:34;22.90;64.40
16627;DHT22;8427;52.204;7.202;2023-06-19T07:44:02;23.00;64.60
16627;DHT22;8427;52.204;7.202;2023-06-19T07:46:30;23.00;63.90
16627;DHT22;8427;52.204;7.202;2023-06-19T07:48:58;23.10;63.80
16627;DHT22;8427;52.204;7.202;2023-06-19T07:51:26;23.10;63.80
16627;DHT22;8427;52.204;7.202;2023-06-19T07:53:56;23.20;63.70
16627;DHT22;8427;52.204;7.202;2023-06-19T07:56:24;23.10;64.00
16627;DHT22;8427;52.204;7.202;2023-06-19T07:58:52;23.20;64.00
16627;DHT22;8427;52.204;7.202;2023-06-19T08:01:20;23.20;64.10
16627;DHT22;8427;52.204;7.202;2023-06-19T08:03:48;23.20;63.50
16627;DHT22;8427;52.204;7.202;2023-06-19T08:06:16;23.30;63.30
16627;DHT22;8427;52.204;7.202;2023-06-19T08:08:44;23.20;63.70
16627;DHT22;8427;52.204;7.202;2023-06-19T08:11:13;23.30;63.60
16627;DHT22;8427;52.204;7.202;2023-06-19T08:13:41;23.50;63.00
16627;DHT22;8427;52.204;7.202;2023-06-19T08:16:09;23.70;61.90
16627;DHT22;8427;52.204;7.202;2023-06-19T08:18:38;23.70;62.00
16627;DHT22;8427;52.204;7.202;2023-06-19T08:21:06;23.70;62.00
16627;DHT22;8427;52.204;7.202;2023-06-19T08:23:34;23.70;62.30
16627;DHT22;8427;52.204;7.202;2023-06-19T08:26:02;24.00;61.70
16627;DHT22;8427;52.204;7.202;2023-06-19T08:28:32;24.00;61.40
16627;DHT22;8427;52.204;7.202;2023-06-19T08:31:00;24.30;60.60
16627;DHT22;8427;52.204;7.202;2023-06-19T08:33:29;24.40;60.20
16627;DHT22;8427;52.204;7.202;2023-06-19T08:35:57;24.60;60.00
16627;DHT22;8427;52.204;7.202;2023-06-19T08:38:25;24.40;59.60
16627;DHT22;8427;52.204;7.202;2023-06-19T08:40:53;24.30;59.90
16627;DHT22;8427;52.204;7.202;2023-06-19T08:43:22;24.20;61.50
16627;DHT22;8427;52.204;7.202;2023-06-19T08:46:01;24.30;60.20
16627;DHT22;8427;52.204;7.202;2023-06-19T08:48:34;24.30;60.90
16627;DHT22;8427;52.204;7.202;2023-06-19T08:51:03;24.20;60.60
16627;DHT22;8427;52.204;7.202;2023-06-19T08:53:34;24.40;60.40
16627;DHT22;8427;52.204;7.202;2023-06-19T08:56:03;24.50;59.60
16627;DHT22;8427;52.204;7.202;2023-06-19T08:58:31;24.70;59.80
16627;DHT22;8427;52.204;7.202;2023-06-19T09:01:00;24.90;58.90
16627;DHT22;8427;52.204;7.202;2023-06-19T09:03:28;24.90;58.40
16627;DHT22;8427;52.204;7.202;2023-06-19T09:06:02;25.00;57.90
16627;DHT22;8427;52.204;7.202;2023-06-19T09:08:30;24.60;58.40
16627;DHT22;8427;52.204;7.202;2023-06-19T09:11:00;24.80;59.10
16627;DHT22;8427;52.204;7.202;2023-06-19T09:13:30;24.90;59.20
16627;DHT22;8427;52.204;7.202;2023-06-19T09:16:01;25.30;57.80
16627;DHT22;8427;52.204;7.202;2023-06-19T09:18:30;25.10;57.80
16627;DHT22;8427;52.204;7.202;2023-06-19T09:20:59;25.10;57.90
16627;DHT22;8427;52.204;7.202;2023-06-19T09:23:27;25.10;57.20
16627;DHT22;8427;52.204;7.202;2023-06-19T09:25:57;24.90;57.40
16627;DHT22;8427;52.204;7.202;2023-06-19T09:28:27;24.80;58.20
16627;DHT22;8427;52.204;7.202;2023-06-19T09:30:57;24.70;58.40
16627;DHT22;8427;52.204;7.202;2023-06-19T09:33:28;24.80;57.50
16627;DHT22;8427;52.204;7.202;2023-06-19T09:35:58;24.80;58.10
16627;DHT22;8427;52.204;7.202;2023-06-19T09:38:28;24.70;57.70
16627;DHT22;8427;52.204;7.202;2023-06-19T09:40:57;24.60;58.00
16627;DHT22;8427;52.204;7.202;2023-06-19T09:43:32;24.80;58.20
16627;DHT22;8427;52.204;7.202;2023-06-19T09:46:02;25.00;57.30
16627;DHT22;8427;52.204;7.202;2023-06-19T09:48:33;25.20;56.70
16627;DHT22;8427;52.204;7.202;2023-06-19T09:51:07;25.40;55.70
16627;DHT22;8427;52.204;7.202;2023-06-19T09:53:37;25.50;56.00
16627;DHT22;8427;52.204;7.202;2023-06-19T09:56:05;25.60;56.10
16627;DHT22;8427;52.204;7.202;2023-06-19T09:58:35;25.60;54.30
16627;DHT22;8427;52.204;7.202;2023-06-19T10:01:04;25.40;55.10
16627;DHT22;8427;52.204;7.202;2023-06-19T10:03:36;25.40;55.20
16627;DHT22;8427;52.204;7.202;2023-06-19T10:06:04;25.20;55.00
16627;DHT22;8427;52.204;7.202;2023-06-19T10:08:39;25.30;54.50
16627;DHT22;8427;52.204;7.202;2023-06-19T10:11:07;25.20;55.20
16627;DHT22;8427;52.204;7.202;2023-06-19T10:13:36;25.40;55.00
16627;DHT22;8427;52.204;7.202;2023-06-19T10:16:05;25.50;54.70
16627;DHT22;8427;52.204;7.202;2023-06-19T10:18:45;25.70;54.70
16627;DHT22;8427;52.204;7.202;2023-06-19T10:21:16;25.90;54.40
16627;DHT22;8427;52.204;7.202;2023-06-19T10:23:53;26.10;52.80
16627;DHT22;8427;52.204;7.202;2023-06-19T10:26:30;26.30;51.60
16627;DHT22;8427;52.204;7.202;2023-06-19T10:28:57;26.50;52.30
16627;DHT22;8427;52.204;7.202;2023-06-19T10:31:25;26.60;50.90
16627;DHT22;8427;52.204;7.202;2023-06-19T10:33:56;26.60;51.10
16627;DHT22;8427;52.204;7.202;2023-06-19T10:36:24;26.40;51.60
16627;DHT22;8427;52.204;7.202;2023-06-19T10:38:53;26.70;53.20
16627;DHT22;8427;52.204;7.202;2023-06-19T10:41:22;26.80;50.40
16627;DHT22;8427;52.204;7.202;2023-06-19T10:43:56;26.50;50.90
16627;DHT22;8427;52.204;7.202;2023-06-19T10:46:28;26.80;50.00
16627;DHT22;8427;52.204;7.202;2023-06-19T10:48:59;27.00;50.20
16627;DHT22;8427;52.204;7.202;2023-06-19T10:51:28;27.30;49.60
16627;DHT22;8427;52.204;7.202;2023-06-19T10:53:57;27.50;47.00
16627;DHT22;8427;52.204;7.202;2023-06-19T10:56:25;27.30;49.70
16627;DHT22;8427;52.204;7.202;2023-06-19T10:59:00;27.40;49.90
16627;DHT22;8427;52.204;7.202;2023-06-19T11:01:35;27.10;49.00
16627;DHT22;8427;52.204;7.202;2023-06-19T11:04:06;27.10;45.40
16627;DHT22;8427;52.204;7.202;2023-06-19T11:06:34;26.80;45.00
16627;DHT22;8427;52.204;7.202;2023-06-19T11:09:03;27.00;46.30
16627;DHT22;8427;52.204;7.202;2023-06-19T11:11:36;26.80;46.10
16627;DHT22;8427;52.204;7.202;2023-06-19T11:14:04;27.00;48.00
16627;DHT22;8427;52.204;7.202;2023-06-19T11:16:33;27.20;47.00
16627;DHT22;8427;52.204;7.202;2023-06-19T11:19:01;27.20;46.40
16627;DHT22;8427;52.204;7.202;2023-06-19T11:21:31;27.20;46.20
16627;DHT22;8427;52.204;7.202;2023-06-19T11:24:06;27.00;44.10
16627;DHT22;8427;52.204;7.202;2023-06-19T11:26:38;26.80;44.60
16627;DHT22;8427;52.204;7.202;2023-06-19T11:29:14;26.80;44.10
16627;DHT22;8427;52.204;7.202;2023-06-19T11:31:43;26.90;44.70
16627;DHT22;8427;52.204;7.202;2023-06-19T11:34:11;27.10;46.10
16627;DHT22;8427;52.204;7.202;2023-06-19T11:36:41;27.40;42.70
16627;DHT22;8427;52.204;7.202;2023-06-19T11:39:10;27.40;42.60
16627;DHT22;8427;52.204;7.202;2023-06-19T11:41:40;27.40;43.00
16627;DHT22;8427;52.204;7.202;2023-06-19T11:44:08;27.40;42.90
16627;DHT22;8427;52.204;7.202;2023-06-19T11:46:37;27.10;42.80
16627;DHT22;8427;52.204;7.202;2023-06-19T11:49:12;27.10;43.00
16627;DHT22;8427;52.204;7.202;2023-06-19T11:51:41;27.10;43.20
16627;DHT22;8427;52.204;7.202;2023-06-19T11:54:11;27.10;43.10
16627;DHT22;8427;52.204;7.202;2023-06-19T11:56:40;27.40;43.30
16627;DHT22;8427;52.204;7.202;2023-06-19T11:59:08;27.60;43.80
16627;DHT22;8427;52.204;7.202;2023-06-19T12:01:36;27.80;42.80
16627;DHT22;8427;52.204;7.202;2023-06-19T12:04:05;27.70;43.70
16627;DHT22;8427;52.204;7.202;2023-06-19T12:06:34;27.90;42.90
16627;DHT22;8427;52.204;7.202;2023-06-19T12:09:05;28.00;43.20
16627;DHT22;8427;52.204;7.202;2023-06-19T12:11:33;27.80;43.20
16627;DHT22;8427;52.204;7.202;2023-06-19T12:14:01;27.80;43.00
16627;DHT22;8427;52.204;7.202;2023-06-19T12:16:29;27.90;44.20
16627;DHT22;8427;52.204;7.202;2023-06-19T12:18:57;28.00;43.40
16627;DHT22;8427;52.204;7.202;2023-06-19T12:21:25;28.00;43.20
16627;DHT22;8427;52.204;7.202;2023-06-19T12:24:06;27.90;43.90
16627;DHT22;8427;52.204;7.202;2023-06-19T12:26:34;28.00;43.30
16627;DHT22;8427;52.204;7.202;2023-06-19T12:29:03;28.10;42.80
16627;DHT22;8427;52.204;7.202;2023-06-19T12:31:32;28.10;42.80
16627;DHT22;8427;52.204;7.202;2023-06-19T12:34:00;28.10;43.10
16627;DHT22;8427;52.204;7.202;2023-06-19T12:36:46;28.00;43.70
16627;DHT22;8427;52.204;7.202;2023-06-19T12:39:16;28.00;42.50
16627;DHT22;8427;52.204;7.202;2023-06-19T12:41:44;27.90;42.10
16627;DHT22;8427;52.204;7.202;2023-06-19T12:44:12;28.00;42.40
16627;DHT22;8427;52.204;7.202;2023-06-19T12:46:40;28.00;41.40
16627;DHT22;8427;52.204;7.202;2023-06-19T12:49:08;28.20;42.30
16627;DHT22;8427;52.204;7.202;2023-06-19T12:51:36;28.30;42.10
16627;DHT22;8427;52.204;7.202;2023-06-19T12:54:04;28.40;42.10
16627;DHT22;8427;52.204;7.202;2023-06-19T12:56:33;28.50;41.90
16627;DHT22;8427;52.204;7.202;2023-06-19T12:59:01;28.60;41.90
16627;DHT22;8427;52.204;7.202;2023-06-19T13:01:29;28.60;42.50
16627;DHT22;8427;52.204;7.202;2023-06-19T13:03:58;28.90;41.30
16627;DHT22;8427;52.204;7.202;2023-06-19T13:06:26;29.00;39.90
16627;DHT22;8427;52.204;7.202;2023-06-19T13:08:54;29.10;40.90
16627;DHT22;8427;52.204;7.202;2023-06-19T13:11:22;29.00;40.20
16627;DHT22;8427;52.204;7.202;2023-06-19T13:13:51;28.90;41.20
16627;DHT22;8427;52.204;7.202;2023-06-19T13:16:19;28.90;40.40
16627;DHT22;8427;52.204;7.202;2023-06-19T13:19:07;28.90;41.30
16627;DHT22;8427;52.204;7.202;2023-06-19T13:21:35;28.80;40.40
16627;DHT22;8427;52.204;7.202;2023-06-19T13:24:04;28.60;41.10
16627;DHT22;8427;52.204;7.202;2023-06-19T13:26:32;28.60;43.20
16627;DHT22;8427;52.204;7.202;2023-06-19T13:29:02;28.70;40.90
16627;DHT22;8427;52.204;7.202;2023-06-19T13:31:30;28.80;42.00
16627;DHT22;8427;52.204;7.202;2023-06-19T13:33:58;29.00;41.00
16627;DHT22;8427;52.204;7.202;2023-06-19T13:36:26;29.30;43.40
16627;DHT22;8427;52.204;7.202;2023-06-19T13:38:54;29.60;41.30
16627;DHT22;8427;52.204;7.202;2023-06-19T13:41:22;29.80;40.80
16627;DHT22;8427;52.204;7.202;2023-06-19T13:43:51;30.00;40.70
16627;DHT22;8427;52.204;7.202;2023-06-19T13:46:21;29.90;39.40
16627;DHT22;8427;52.204;7.202;2023-06-19T13:48:49;29.50;41.10
16627;DHT22;8427;52.204;7.202;2023-06-19T13:51:19;29.10;40.10
16627;DHT22;8427;52.204;7.202;2023-06-19T13:53:48;28.80;42.00
16627;DHT22;8427;52.204;7.202;2023-06-19T13:56:16;28.80;41.20
16627;DHT22;8427;52.204;7.202;2023-06-19T13:58:44;28.90;40.80
16627;DHT22;8427;52.204;7.202;2023-06-19T14:01:12;28.90;41.10
16627;DHT22;8427;52.204;7.202;2023-06-19T14:03:41;28.90;41.80
16627;DHT22;8427;52.204;7.202;2023-06-19T14:06:10;29.00;40.80
16627;DHT22;8427;52.204;7.202;2023-06-19T14:08:39;29.00;41.50
16627;DHT22;8427;52.204;7.202;2023-06-19T14:11:07;28.90;40.70
16627;DHT22;8427;52.204;7.202;2023-06-19T14:13:35;28.90;41.80
16627;DHT22;8427;52.204;7.202;2023-06-19T14:16:03;28.80;40.80
16627;DHT22;8427;52.204;7.202;2023-06-19T14:18:31;28.90;42.90
16627;DHT22;8427;52.204;7.202;2023-06-19T14:21:01;29.20;41.10
16627;DHT22;8427;52.204;7.202;2023-06-19T14:23:29;29.20;43.40
16627;DHT22;8427;52.204;7.202;2023-06-19T14:25:57;29.00;42.20
16627;DHT22;8427;52.204;7.202;2023-06-19T14:28:25;28.90;43.00
16627;DHT22;8427;52.204;7.202;2023-06-19T14:30:53;28.60;41.40
16627;DHT22;8427;52.204;7.202;2023-06-19T14:33:21;28.30;41.70
16627;DHT22;8427;52.204;7.202;2023-06-19T14:35:49;28.20;41.40
16627;DHT22;8427;52.204;7.202;2023-06-19T14:38:20;28.40;42.60
16627;DHT22;8427;52.204;7.202;2023-06-19T14:40:48;28.60;40.80
16627;DHT22;8427;52.204;7.202;2023-06-19T14:43:17;28.80;40.90
16627;DHT22;8427;52.204;7.202;2023-06-19T14:45:45;28.90;39.60
16627;DHT22;8427;52.204;7.202;2023-06-19T14:48:13;28.90;39.90
16627;DHT22;8427;52.204;7.202;2023-06-19T14:50:42;29.10;40.80
16627;DHT22;8427;52.204;7.202;2023-06-19T14:53:10;29.30;41.40
16627;DHT22;8427;52.204;7.202;2023-06-19T14:55:40;29.50;41.10
16627;DHT22;8427;52.204;7.202;2023-06-19T14:58:12;29.60;40.00
16627;DHT22;8427;52.204;7.202;2023-06-19T15:00:41;29.70;38.90
16627;DHT22;8427;52.204;7.202;2023-06-19T15:03:09;29.30;39.80
16627;DHT22;8427;52.204;7.202;2023-06-19T15:05:37;29.10;40.20
16627;DHT22;8427;52.204;7.202;2023-06-19T15:08:05;29.20;42.50
16627;DHT22;8427;52.204;7.202;2023-06-19T15:10:36;29.50;38.60
16627;DHT22;8427;52.204;7.202;2023-06-19T15:13:05;29.50;38.70
16627;DHT22;8427;52.204;7.202;2023-06-19T15:15:33;29.90;40.70
16627;DHT22;8427;52.204;7.202;2023-06-19T15:18:01;30.30;38.90
16627;DHT22;8427;52.204;7.202;2023-06-19T15:20:29;30.60;37.10
16627;DHT22;8427;52.204;7.202;2023-06-19T15:22:57;31.00;37.10
16627;DHT22;8427;52.204;7.202;2023-06-19T15:25:25;31.50;35.90
16627;DHT22;8427;52.204;7.202;2023-06-19T15:27:53;31.40;35.50
16627;DHT22;8427;52.204;7.202;2023-06-19T15:30:22;31.90;34.30
16627;DHT22;8427;52.204;7.202;2023-06-19T15:32:51;32.40;33.30
16627;DHT22;8427;52.204;7.202;2023-06-19T15:35:19;32.40;32.90
16627;DHT22;8427;52.204;7.202;2023-06-19T15:37:47;32.50;33.50
16627;DHT22;8427;52.204;7.202;2023-06-19T15:40:15;32.30;32.40
16627;DHT22;8427;52.204;7.202;2023-06-19T15:42:43;32.10;33.30
16627;DHT22;8427;52.204;7.202;2023-06-19T15:45:11;32.00;33.40
16627;DHT22;8427;52.204;7.202;2023-06-19T15:47:41;32.50;32.90
16627;DHT22;8427;52.204;7.202;2023-06-19T15:50:09;33.30;32.70
16627;DHT22;8427;52.204;7.202;2023-06-19T15:52:37;33.10;31.80
16627;DHT22;8427;52.204;7.202;2023-06-19T15:55:06;33.30;32.90
16627;DHT22;8427;52.204;7.202;2023-06-19T15:57:34;33.00;31.50